Time,TemperatureF,DewpointF,PressureIn,WindDirection,WindDirectionDegrees,WindSpeedMPH,WindSpeedGustMPH,Humidity,HourlyPrecipIn,Conditions,Clouds,dailyrainin,SoftwareType,DateUTC
2013-01-06 00:00:00,34.1,31.7,29.79,SW,225,2.0,11.0,91,0.01,,,-99.99,WeatherLink 5.7,2013-01-06 06:00:00,
2013-01-06 00:15:00,34.1,31.5,29.78,SW,225,3.0,12.0,90,0.01,,,-99.99,WeatherLink 5.7,2013-01-06 06:15:00,
2013-01-06 00:30:00,34.1,31.5,29.79,WSW,247,4.0,11.0,90,0.01,,,-99.99,WeatherLink 5.7,2013-01-06 06:30:00,
2013-01-06 00:45:00,34.1,31.5,29.78,WSW,247,4.0,12.0,90,0.00,,,-99.99,WeatherLink 5.7,2013-01-06 06:45:00,
2013-01-06 01:00:00,34.3,31.4,29.79,WSW,247,4.0,13.0,89,0.01,,,-99.99,WeatherLink 5.7,2013-01-06 07:00:00,
2013-01-06 01:15:00,33.2,29.8,29.79,West,270,4.0,13.0,87,0.01,,,-99.99,WeatherLink 5.7,2013-01-06 07:15:00,
2013-01-06 01:30:00,32.8,29.1,29.79,West,270,4.0,14.0,86,0.01,,,-99.99,WeatherLink 5.7,2013-01-06 07:30:00,
2013-01-06 01:45:00,31.3,27.3,29.81,WNW,292,5.0,15.0,85,0.01,,,-99.99,WeatherLink 5.7,2013-01-06 07:45:00,
2013-01-06 02:00:00,29.7,24.6,29.81,WNW,292,5.0,16.0,81,0.00,,,-99.99,WeatherLink 5.7,2013-01-06 08:00:00,
2013-01-06 02:15:00,28.8,23.4,29.82,West,270,5.0,17.0,80,0.00,,,-99.99,WeatherLink 5.7,2013-01-06 08:15:00,
2013-01-06 02:30:00,27.9,22.2,29.83,West,270,4.0,14.0,79,0.00,,,-99.99,WeatherLink 5.7,2013-01-06 08:30:00,
2013-01-06 02:45:00,27.0,20.4,29.83,West,270,2.0,8.0,76,0.00,,,-99.99,WeatherLink 5.7,2013-01-06 08:45:00,
2013-01-06 03:00:00,26.1,19.6,29.83,West,270,3.0,11.0,76,0.00,,,-99.99,WeatherLink 5.7,2013-01-06 09:00:00,
2013-01-06 03:15:00,25.7,20.1,29.84,WNW,292,5.0,15.0,79,0.00,,,-99.99,WeatherLink 5.7,2013-01-06 09:15:00,
2013-01-06 03:30:00,25.3,19.1,29.84,West,270,5.0,14.0,77,0.00,,,-99.99,WeatherLink 5.7,2013-01-06 09:30:00,
2013-01-06 03:45:00,24.8,18.9,29.85,West,270,5.0,14.0,78,0.00,,,-99.99,WeatherLink 5.7,2013-01-06 09:45:00,
2013-01-06 04:00:00,24.7,18.8,29.85,West,270,4.0,12.0,78,0.00,,,-99.99,WeatherLink 5.7,2013-01-06 10:00:00,
2013-01-06 04:15:00,24.2,18.3,29.85,WNW,292,5.0,15.0,78,0.00,,,-99.99,WeatherLink 5.7,2013-01-06 10:15:00,
2013-01-06 04:30:00,23.8,17.9,29.85,WNW,292,5.0,17.0,78,0.00,,,-99.99,WeatherLink 5.7,2013-01-06 10:30:00,
2013-01-06 04:45:00,23.2,17.4,29.86,WNW,292,5.0,17.0,78,0.00,,,-99.99,WeatherLink 5.7,2013-01-06 10:45:00,
2013-01-06 05:00:00,22.7,16.9,29.87,WNW,292,5.0,17.0,78,0.00,,,-99.99,WeatherLink 5.7,2013-01-06 11:00:00,
2013-01-06 05:15:00,22.2,16.4,29.87,WNW,292,4.0,13.0,78,0.00,,,-99.99,WeatherLink 5.7,2013-01-06 11:15:00,
2013-01-06 05:30:00,21.9,16.1,29.88,WNW,292,4.0,11.0,78,0.00,,,-99.99,WeatherLink 5.7,2013-01-06 11:30:00,
2013-01-06 05:45:00,21.8,16.0,29.88,WNW,292,3.0,12.0,78,0.00,,,-99.99,WeatherLink 5.7,2013-01-06 11:45:00,
2013-01-06 06:00:00,21.4,15.6,29.90,WNW,292,3.0,11.0,78,0.00,,,-99.99,WeatherLink 5.7,2013-01-06 12:00:00,
2013-01-06 06:15:00,21.3,15.5,29.90,WNW,292,3.0,12.0,78,0.00,,,-99.99,WeatherLink 5.7,2013-01-06 12:15:00,
2013-01-06 06:30:00,21.3,15.5,29.91,NW,315,3.0,11.0,78,0.00,,,-99.99,WeatherLink 5.7,2013-01-06 12:30:00,
2013-01-06 06:45:00,20.8,15.0,29.91,West,270,3.0,12.0,78,0.00,,,-99.99,WeatherLink 5.7,2013-01-06 12:45:00,
2013-01-06 07:00:00,20.6,14.8,29.92,WNW,292,3.0,10.0,78,0.00,,,-99.99,WeatherLink 5.7,2013-01-06 13:00:00,
2013-01-06 07:15:00,20.5,14.7,29.93,NW,315,3.0,13.0,78,0.00,,,-99.99,WeatherLink 5.7,2013-01-06 13:15:00,
2013-01-06 07:32:00,20.2,14.4,29.93,WNW,292,3.0,11.0,78,0.00,,,-99.99,WeatherLink 5.7,2013-01-06 13:32:00,
2013-01-06 07:45:00,20.2,14.4,29.94,WNW,292,3.0,11.0,78,0.00,,,-99.99,WeatherLink 5.7,2013-01-06 13:45:00,
2013-01-06 08:00:00,20.2,14.4,29.95,WNW,292,3.0,11.0,78,0.00,,,-99.99,WeatherLink 5.7,2013-01-06 14:00:00,
2013-01-06 08:15:00,20.6,15.1,29.96,WNW,292,4.0,13.0,79,0.00,,,-99.99,WeatherLink 5.7,2013-01-06 14:15:00,
2013-01-06 08:30:00,21.0,15.2,29.97,WNW,292,4.0,13.0,78,0.00,,,-99.99,WeatherLink 5.7,2013-01-06 14:30:00,
2013-01-06 08:45:00,21.6,15.8,29.98,WNW,292,4.0,13.0,78,0.00,,,-99.99,WeatherLink 5.7,2013-01-06 14:45:00,
2013-01-06 09:00:00,21.6,16.1,29.99,NW,315,4.0,13.0,79,0.00,,,-99.99,WeatherLink 5.7,2013-01-06 15:00:00,
2013-01-06 09:15:00,21.9,16.4,29.99,NW,315,4.0,11.0,79,0.00,,,-99.99,WeatherLink 5.7,2013-01-06 15:15:00,
2013-01-06 09:30:00,22.4,16.9,30.00,WNW,292,4.0,13.0,79,0.00,,,-99.99,WeatherLink 5.7,2013-01-06 15:30:00,
2013-01-06 09:45:00,22.9,17.4,30.01,WNW,292,4.0,11.0,79,0.00,,,-99.99,WeatherLink 5.7,2013-01-06 15:45:00,
2013-01-06 10:00:00,23.3,17.7,30.02,NW,315,3.0,12.0,79,0.00,,,-99.99,WeatherLink 5.7,2013-01-06 16:00:00,
2013-01-06 10:15:00,23.8,18.2,30.02,WNW,292,3.0,13.0,79,0.00,,,-99.99,WeatherLink 5.7,2013-01-06 16:15:00,
2013-01-06 10:30:00,24.2,18.6,30.02,NW,315,4.0,16.0,79,0.00,,,-99.99,WeatherLink 5.7,2013-01-06 16:30:00,
2013-01-06 10:45:00,24.8,18.9,30.02,NW,315,3.0,11.0,78,0.00,,,-99.99,WeatherLink 5.7,2013-01-06 16:45:00,
2013-01-06 11:00:00,25.6,19.4,30.03,NW,315,4.0,10.0,77,0.00,,,-99.99,WeatherLink 5.7,2013-01-06 17:00:00,
2013-01-06 11:15:00,26.0,19.5,30.04,WNW,292,4.0,13.0,76,0.00,,,-99.99,WeatherLink 5.7,2013-01-06 17:15:00,
2013-01-06 11:30:00,26.3,19.8,30.04,NW,315,4.0,11.0,76,0.00,,,-99.99,WeatherLink 5.7,2013-01-06 17:30:00,
2013-01-06 11:49:00,26.9,20.3,30.05,NW,315,4.0,10.0,76,0.00,,,-99.99,WeatherLink 5.7,2013-01-06 17:49:00,
2013-01-06 12:00:00,27.2,20.3,30.05,NW,315,4.0,13.0,75,0.00,,,-99.99,WeatherLink 5.7,2013-01-06 18:00:00,
2013-01-06 12:15:00,26.3,19.5,30.05,WNW,292,5.0,12.0,75,0.00,,,-99.99,WeatherLink 5.7,2013-01-06 18:15:00,
2013-01-06 12:30:00,26.3,19.5,30.05,WNW,292,4.0,13.0,75,0.00,,,-99.99,WeatherLink 5.7,2013-01-06 18:30:00,
2013-01-06 12:45:00,26.3,19.5,30.05,WNW,292,3.0,12.0,75,0.00,,,-99.99,WeatherLink 5.7,2013-01-06 18:45:00,
2013-01-06 13:00:00,26.3,19.8,30.05,West,270,2.0,10.0,76,0.00,,,-99.99,WeatherLink 5.7,2013-01-06 19:00:00,
2013-01-06 13:15:00,26.7,20.1,30.06,WNW,292,2.0,5.0,76,0.00,,,-99.99,WeatherLink 5.7,2013-01-06 19:15:00,
2013-01-06 13:30:00,26.7,19.8,30.07,NW,315,4.0,9.0,75,0.00,,,-99.99,WeatherLink 5.7,2013-01-06 19:30:00,
2013-01-06 13:45:00,26.9,20.3,30.08,NW,315,3.0,11.0,76,0.00,,,-99.99,WeatherLink 5.7,2013-01-06 19:45:00,
2013-01-06 14:00:00,27.2,20.3,30.08,WNW,292,4.0,11.0,75,0.00,,,-99.99,WeatherLink 5.7,2013-01-06 20:00:00,
2013-01-06 14:15:00,27.3,20.1,30.09,NW,315,3.0,11.0,74,0.00,,,-99.99,WeatherLink 5.7,2013-01-06 20:15:00,
2013-01-06 14:30:00,27.3,20.1,30.09,NW,315,2.0,11.0,74,0.00,,,-99.99,WeatherLink 5.7,2013-01-06 20:30:00,
2013-01-06 14:45:00,27.8,20.3,30.09,West,270,1.0,6.0,73,0.00,,,-99.99,WeatherLink 5.7,2013-01-06 20:45:00,
2013-01-06 15:00:00,28.1,20.6,30.10,NW,315,1.0,5.0,73,0.00,,,-99.99,WeatherLink 5.7,2013-01-06 21:00:00,
2013-01-06 15:15:00,27.8,19.9,30.11,West,270,1.0,5.0,72,0.00,,,-99.99,WeatherLink 5.7,2013-01-06 21:15:00,
2013-01-06 15:30:00,27.2,19.4,30.12,West,270,1.0,7.0,72,0.00,,,-99.99,WeatherLink 5.7,2013-01-06 21:30:00,
2013-01-06 15:45:00,26.4,18.6,30.14,WSW,247,3.0,9.0,72,0.00,,,-99.99,WeatherLink 5.7,2013-01-06 21:45:00,
2013-01-06 16:00:00,25.6,18.1,30.15,West,270,4.0,11.0,73,0.00,,,-99.99,WeatherLink 5.7,2013-01-06 22:00:00,
2013-01-06 16:15:00,24.7,17.6,30.15,West,270,4.0,14.0,74,0.00,,,-99.99,WeatherLink 5.7,2013-01-06 22:15:00,
2013-01-06 16:30:00,24.1,17.3,30.16,WSW,247,3.0,10.0,75,0.00,,,-99.99,WeatherLink 5.7,2013-01-06 22:30:00,
2013-01-06 16:45:00,23.3,16.9,30.17,WSW,247,1.0,6.0,76,0.00,,,-99.99,WeatherLink 5.7,2013-01-06 22:45:00,
2013-01-06 17:00:00,22.7,16.9,30.17,WSW,247,2.0,6.0,78,0.00,,,-99.99,WeatherLink 5.7,2013-01-06 23:00:00,
2013-01-06 17:15:00,21.9,16.1,30.18,WSW,247,3.0,8.0,78,0.00,,,-99.99,WeatherLink 5.7,2013-01-06 23:15:00,
2013-01-06 17:30:00,21.1,15.6,30.18,West,270,2.0,9.0,79,0.00,,,-99.99,WeatherLink 5.7,2013-01-06 23:30:00,
2013-01-06 17:45:00,20.8,15.6,30.19,West,270,2.0,7.0,80,0.00,,,-99.99,WeatherLink 5.7,2013-01-06 23:45:00,
2013-01-06 18:00:00,20.3,15.1,30.19,WSW,247,1.0,6.0,80,0.00,,,-99.99,WeatherLink 5.7,2013-01-07 00:00:00,
2013-01-06 18:15:00,20.0,14.8,30.19,WSW,247,1.0,4.0,80,0.00,,,-99.99,WeatherLink 5.7,2013-01-07 00:15:00,
2013-01-06 18:30:00,19.7,14.8,30.20,WSW,247,1.0,5.0,81,0.00,,,-99.99,WeatherLink 5.7,2013-01-07 00:30:00,
2013-01-06 18:45:00,19.4,14.5,30.20,WSW,247,1.0,5.0,81,0.00,,,-99.99,WeatherLink 5.7,2013-01-07 00:45:00,
2013-01-06 19:00:00,18.9,14.0,30.20,WSW,247,1.0,5.0,81,0.00,,,-99.99,WeatherLink 5.7,2013-01-07 01:00:00,
2013-01-06 19:15:00,18.0,13.2,30.21,North,-999,0.0,0.0,81,0.00,,,-99.99,WeatherLink 5.7,2013-01-07 01:15:00,
2013-01-06 19:30:00,17.7,13.1,30.20,North,-999,0.0,0.0,82,0.00,,,-99.99,WeatherLink 5.7,2013-01-07 01:30:00,
2013-01-06 19:45:00,16.5,12.0,30.21,WSW,247,0.0,1.0,82,0.00,,,-99.99,WeatherLink 5.7,2013-01-07 01:45:00,
2013-01-06 20:00:00,16.5,12.2,30.21,WSW,247,0.0,2.0,83,0.00,,,-99.99,WeatherLink 5.7,2013-01-07 02:00:00,
2013-01-06 20:15:00,16.4,12.1,30.21,North,-999,0.0,0.0,83,0.00,,,-99.99,WeatherLink 5.7,2013-01-07 02:15:00,
2013-01-06 20:30:00,16.5,12.5,30.21,WSW,247,0.0,1.0,84,0.00,,,-99.99,WeatherLink 5.7,2013-01-07 02:30:00,
2013-01-06 20:45:00,16.1,12.1,30.21,North,-999,0.0,0.0,84,0.00,,,-99.99,WeatherLink 5.7,2013-01-07 02:45:00,
2013-01-06 21:00:00,15.4,11.4,30.21,North,-999,0.0,0.0,84,0.00,,,-99.99,WeatherLink 5.7,2013-01-07 03:00:00,
2013-01-06 21:15:00,14.1,9.9,30.21,North,-999,0.0,0.0,83,0.00,,,-99.99,WeatherLink 5.7,2013-01-07 03:15:00,
2013-01-06 21:30:00,14.0,10.1,30.22,WSW,247,0.0,3.0,84,0.00,,,-99.99,WeatherLink 5.7,2013-01-07 03:30:00,
2013-01-06 21:45:00,15.4,11.7,30.22,WSW,247,0.0,3.0,85,0.00,,,-99.99,WeatherLink 5.7,2013-01-07 03:45:00,
2013-01-06 22:00:00,15.7,12.0,30.22,WSW,247,0.0,3.0,85,0.00,,,-99.99,WeatherLink 5.7,2013-01-07 04:00:00,
2013-01-06 22:15:00,15.6,12.2,30.22,North,-999,0.0,0.0,86,0.00,,,-99.99,WeatherLink 5.7,2013-01-07 04:15:00,
2013-01-06 22:30:00,14.9,11.2,30.23,WSW,247,0.0,1.0,85,0.00,,,-99.99,WeatherLink 5.7,2013-01-07 04:30:00,
2013-01-06 22:45:00,14.9,11.5,30.22,North,-999,0.0,0.0,86,0.00,,,-99.99,WeatherLink 5.7,2013-01-07 04:45:00,
2013-01-06 23:00:00,14.3,10.6,30.22,North,-999,0.0,0.0,85,0.00,,,-99.99,WeatherLink 5.7,2013-01-07 05:00:00,
2013-01-06 23:15:00,12.8,9.1,30.22,North,-999,0.0,0.0,85,0.00,,,-99.99,WeatherLink 5.7,2013-01-07 05:15:00,
2013-01-06 23:30:00,11.2,7.3,30.21,North,-999,0.0,0.0,84,0.00,,,-99.99,WeatherLink 5.7,2013-01-07 05:30:00,
2013-01-06 23:45:00,10.9,7.3,30.21,North,-999,0.0,0.0,85,0.00,,,-99.99,WeatherLink 5.7,2013-01-07 05:45:00,